Time;durP1;ratioP1;P1;durP2;ratioP2;P2;SDS_P1;SDS_P2;PMS_P1;PMS_P2;Temp;Humidity;BMP_temperature;BMP_pressure;BME280_temperature;BME280_humidity;BME280_pressure;Samples;Min_cycle;Max_cycle;Signal;HPM_P1;HPM_P2
2022/08/06 00:00:46;;;;;;;16.92;10.25;;;16.90;92.40;;;;;;5061247;28;20126;-67
2022/08/06 00:03:12;;;;;;;15.30;10.10;;;17.00;91.70;;;;;;5055966;28;20436;-67
2022/08/06 00:05:37;;;;;;;13.00;9.48;;;17.00;91.10;;;;;;5066871;28;20097;-67
2022/08/06 00:08:03;;;;;;;12.07;8.05;;;17.00;91.10;;;;;;5063251;28;20040;-67
2022/08/06 00:10:30;;;;;;;10.02;6.85;;;17.00;94.30;;;;;;5064599;28;20883;-66
2022/08/06 00:12:57;;;;;;;10.52;6.68;;;17.00;95.60;;;;;;5064243;28;20017;-67
2022/08/06 00:15:23;;;;;;;9.77;6.93;;;17.00;95.60;;;;;;5071479;28;20043;-67
2022/08/06 00:17:51;;;;;;;9.60;6.15;;;16.90;96.20;;;;;;5060929;28;20025;-67
2022/08/06 00:20:16;;;;;;;9.43;6.45;;;16.90;95.20;;;;;;5054338;28;20033;-66
2022/08/06 00:22:42;;;;;;;11.13;7.15;;;16.90;96.90;;;;;;5076783;28;20042;-66
2022/08/06 00:25:10;;;;;;;12.00;7.30;;;16.90;96.10;;;;;;5065072;28;20021;-66
2022/08/06 00:27:36;;;;;;;10.70;6.68;;;16.80;95.60;;;;;;5071641;28;20025;-66
2022/08/06 00:30:03;;;;;;;9.57;6.90;;;16.90;96.40;;;;;;5063886;28;20349;-67
2022/08/06 00:32:29;;;;;;;10.10;6.00;;;16.80;95.40;;;;;;5070027;28;20031;-66
2022/08/06 00:34:55;;;;;;;10.13;6.53;;;16.90;96.30;;;;;;5071996;28;20052;-66
2022/08/06 00:37:20;;;;;;;8.48;5.78;;;16.90;95.80;;;;;;5072030;28;20035;-67
2022/08/06 00:39:46;;;;;;;8.77;5.72;;;16.90;96.30;;;;;;5069859;28;20108;-67
2022/08/06 00:42:12;;;;;;;10.18;5.65;;;16.90;96.30;;;;;;5066299;28;20021;-67
2022/08/06 00:44:38;;;;;;;10.20;5.82;;;16.80;97.00;;;;;;5059035;28;20291;-66
2022/08/06 00:47:04;;;;;;;8.48;5.95;;;16.80;96.30;;;;;;5067893;28;20021;-66
2022/08/06 00:49:30;;;;;;;9.02;5.25;;;17.00;95.90;;;;;;5058481;28;20315;-67
2022/08/06 00:51:56;;;;;;;7.03;4.57;;;16.90;97.70;;;;;;5067748;28;20035;-66
2022/08/06 00:54:25;;;;;;;6.90;4.47;;;16.90;98.00;;;;;;5067182;28;20776;-66
2022/08/06 00:56:51;;;;;;;7.72;4.95;;;16.80;97.60;;;;;;5069394;28;20040;-66
2022/08/06 00:59:17;;;;;;;8.70;4.65;;;16.80;97.20;;;;;;5070448;28;20417;-67
2022/08/06 01:01:43;;;;;;;7.57;4.95;;;16.80;97.30;;;;;;5079433;28;20085;-67
2022/08/06 01:04:09;;;;;;;10.05;5.15;;;16.80;96.60;;;;;;5079447;28;20032;-67
2022/08/06 01:06:38;;;;;;;8.05;4.97;;;16.80;96.10;;;;;;5065780;28;20033;-67
2022/08/06 01:09:07;;;;;;;7.40;4.82;;;16.80;96.70;;;;;;5078682;28;20060;-67
2022/08/06 01:11:38;;;;;;;7.43;4.78;;;16.80;95.80;;;;;;5058777;28;20033;-67
2022/08/06 01:14:04;;;;;;;7.72;4.82;;;16.90;95.50;;;;;;5071275;28;20020;-67
2022/08/06 01:16:57;;;;;;;8.60;4.05;;;16.90;95.50;;;;;;5070908;28;20028;-67
2022/08/06 01:20:00;;;;;;;7.90;4.28;;;16.70;98.00;;;;;;5076343;28;20079;-66
2022/08/06 01:23:14;;;;;;;6.95;4.85;;;16.70;97.20;;;;;;5083980;28;20032;-66
2022/08/06 01:26:13;;;;;;;7.63;4.63;;;16.80;95.80;;;;;;5037641;28;20029;-66
2022/08/06 01:29:22;;;;;;;7.28;4.70;;;16.80;95.60;;;;;;5076650;28;20036;-66
2022/08/06 01:32:11;;;;;;;8.18;4.45;;;16.80;97.30;;;;;;5072775;28;20094;-65
2022/08/06 01:34:52;;;;;;;7.00;4.50;;;16.70;97.00;;;;;;5083843;28;20028;-65
2022/08/06 01:37:26;;;;;;;8.02;4.10;;;16.70;97.40;;;;;;5062323;28;20302;-66
2022/08/06 01:40:00;;;;;;;8.00;4.80;;;16.60;97.30;;;;;;5068098;28;20033;-67
2022/08/06 01:42:28;;;;;;;7.78;4.82;;;16.60;97.20;;;;;;5073043;28;20477;-67
2022/08/06 01:45:03;;;;;;;7.72;4.38;;;16.60;97.30;;;;;;5066955;28;20102;-67
2022/08/06 01:47:32;;;;;;;7.75;4.60;;;16.60;97.20;;;;;;5062809;28;20021;-67
2022/08/06 01:50:04;;;;;;;6.97;4.47;;;16.60;97.40;;;;;;5060892;28;20025;-67
2022/08/06 01:52:38;;;;;;;7.68;4.38;;;16.60;97.30;;;;;;5065053;28;20033;-67
2022/08/06 01:55:06;;;;;;;;;;;16.60;97.10;;;;;;5069378;28;20107;-67
2022/08/06 01:57:34;;;;;;;8.40;4.63;;;16.70;97.10;;;;;;5075148;28;19909;-67
2022/08/06 02:00:03;;;;;;;8.25;4.28;;;16.70;97.10;;;;;;5074534;28;20325;-67
2022/08/06 02:02:29;;;;;;;8.35;4.63;;;16.70;97.70;;;;;;5076200;28;20024;-67
2022/08/06 02:04:59;;;;;;;9.93;4.40;;;16.70;97.50;;;;;;5061070;28;20083;-66
2022/08/06 02:07:27;;;;;;;7.53;3.63;;;16.70;97.60;;;;;;5058929;28;20049;-67
2022/08/06 02:09:55;;;;;;;7.53;3.75;;;16.70;98.00;;;;;;5059017;28;20017;-66
2022/08/06 02:12:24;;;;;;;6.50;3.47;;;16.70;97.30;;;;;;5072032;28;20033;-67
2022/08/06 02:15:05;;;;;;;8.90;3.55;;;16.70;97.10;;;;;;5063219;28;20032;-67
2022/08/06 02:17:37;;;;;;;6.18;3.10;;;16.70;97.20;;;;;;5059896;28;20426;-67
2022/08/06 02:20:05;;;;;;;5.90;3.50;;;16.60;96.70;;;;;;5062402;28;20029;-67
2022/08/06 02:22:34;;;;;;;7.10;3.08;;;16.60;96.70;;;;;;5076719;28;20037;-67
2022/08/06 02:25:02;;;;;;;6.53;3.13;;;16.60;96.10;;;;;;5074104;28;20069;-67
2022/08/06 02:27:30;;;;;;;10.05;3.35;;;16.60;96.20;;;;;;5085222;28;20032;-68
2022/08/06 02:29:57;;;;;;;8.07;3.42;;;16.60;96.00;;;;;;5072590;28;20035;-67
2022/08/06 02:32:23;;;;;;;4.70;2.92;;;16.60;96.00;;;;;;5075615;28;20082;-67
2022/08/06 02:34:49;;;;;;;5.50;2.80;;;16.60;95.60;;;;;;5072510;28;20368;-67
2022/08/06 02:37:38;;;;;;;7.45;3.03;;;16.50;95.60;;;;;;5076137;28;20028;-67
2022/08/06 02:40:29;;;;;;;4.78;2.95;;;16.50;96.10;;;;;;5071789;28;20036;-66
2022/08/06 02:43:10;;;;;;;6.45;3.00;;;16.50;95.80;;;;;;5060348;28;20033;-66
2022/08/06 02:46:17;;;;;;;6.30;3.10;;;16.50;96.00;;;;;;5069985;28;20024;-67
2022/08/06 02:48:58;;;;;;;6.55;3.30;;;16.50;96.00;;;;;;5032146;28;20060;-67
2022/08/06 02:51:39;;;;;;;7.50;3.20;;;16.50;96.10;;;;;;5056887;28;20082;-67
2022/08/06 02:54:07;;;;;;;5.97;3.13;;;16.50;96.00;;;;;;5074766;28;20107;-66
2022/08/06 02:56:37;;;;;;;7.15;3.10;;;16.50;95.90;;;;;;5076136;28;20028;-67
2022/08/06 02:59:05;;;;;;;5.55;3.13;;;16.50;95.60;;;;;;5073801;28;20028;-67
2022/08/06 03:01:37;;;;;;;6.15;2.80;;;16.40;96.00;;;;;;5068466;28;20035;-67
2022/08/06 03:04:05;;;;;;;6.55;3.45;;;16.40;96.80;;;;;;5072095;28;20089;-67
2022/08/06 03:06:39;;;;;;;5.40;2.88;;;16.40;96.50;;;;;;5069493;28;20025;-67
2022/08/06 03:09:08;;;;;;;7.45;3.42;;;16.40;97.10;;;;;;5058393;28;20044;-69
2022/08/06 03:11:35;;;;;;;6.40;3.15;;;16.40;97.40;;;;;;5073940;28;20503;-67
2022/08/06 03:14:04;;;;;;;9.10;3.67;;;16.40;97.40;;;;;;5073676;28;20035;-67
2022/08/06 03:16:35;;;;;;;7.03;3.22;;;16.30;97.70;;;;;;5073716;28;20372;-67
2022/08/06 03:19:02;;;;;;;7.72;3.40;;;16.30;97.70;;;;;;5067013;28;20056;-68
2022/08/06 03:21:29;;;;;;;7.82;3.20;;;16.30;97.00;;;;;;5064484;28;20033;-67
2022/08/06 03:23:57;;;;;;;7.55;3.25;;;16.10;96.60;;;;;;5071129;28;20306;-66
2022/08/06 03:26:25;;;;;;;7.38;3.05;;;16.10;96.80;;;;;;5071791;28;20419;-67
2022/08/06 03:28:54;;;;;;;5.68;3.10;;;16.10;96.40;;;;;;5062422;28;20115;-67
2022/08/06 03:31:21;;;;;;;5.80;3.10;;;16.10;96.30;;;;;;5066505;28;20032;-67
2022/08/06 03:33:47;;;;;;;6.15;3.22;;;16.10;97.00;;;;;;5069685;28;20060;-66
2022/08/06 03:36:13;;;;;;;5.38;2.80;;;16.00;96.40;;;;;;5067050;28;20435;-67
2022/08/06 03:38:51;;;;;;;6.68;2.90;;;16.00;97.00;;;;;;5075970;28;20476;-66
2022/08/06 03:41:18;;;;;;;6.32;3.08;;;16.00;96.90;;;;;;5074254;28;20113;-65
2022/08/06 03:43:43;;;;;;;6.03;3.03;;;16.00;96.00;;;;;;5074646;28;20104;-66
2022/08/06 03:46:10;;;;;;;6.45;2.72;;;16.00;95.80;;;;;;5072060;28;20472;-66
2022/08/06 03:48:41;;;;;;;6.07;2.72;;;16.00;95.80;;;;;;5076157;28;20030;-67
2022/08/06 03:51:17;;;;;;;5.40;2.67;;;15.90;95.70;;;;;;5059786;28;20052;-66
2022/08/06 03:53:47;;;;;;;7.35;2.97;;;15.90;95.80;;;;;;5070481;28;20103;-67
2022/08/06 03:56:26;;;;;;;8.52;3.15;;;15.90;96.20;;;;;;5056231;28;20082;-67
2022/08/06 03:58:56;;;;;;;6.90;2.97;;;15.90;96.40;;;;;;5072344;28;20028;-67
2022/08/06 04:01:27;;;;;;;6.82;2.65;;;15.90;95.60;;;;;;5067731;28;20492;-66
2022/08/06 04:03:54;;;;;;;6.13;2.72;;;15.90;96.00;;;;;;5072472;28;20032;-67
2022/08/06 04:06:23;;;;;;;8.00;2.92;;;15.90;96.00;;;;;;5068933;28;20020;-67
2022/08/06 04:08:50;;;;;;;6.97;3.08;;;15.90;96.20;;;;;;5075667;28;20037;-67
2022/08/06 04:11:17;;;;;;;4.70;2.60;;;15.90;96.20;;;;;;5073346;28;20032;-67
2022/08/06 04:13:44;;;;;;;8.75;3.08;;;15.90;95.60;;;;;;5071748;28;20487;-67
2022/08/06 04:16:12;;;;;;;7.03;2.92;;;15.80;96.00;;;;;;5074293;28;20082;-67
2022/08/06 04:18:43;;;;;;;7.32;2.58;;;15.80;96.40;;;;;;5060020;28;20055;-67
2022/08/06 04:21:23;;;;;;;4.80;2.75;;;15.90;96.50;;;;;;5065502;28;20052;-67
2022/08/06 04:23:49;;;;;;;5.47;2.83;;;15.90;96.80;;;;;;5068714;28;20401;-65
2022/08/06 04:26:19;;;;;;;6.07;2.88;;;15.90;96.40;;;;;;5060114;28;20080;-65
2022/08/06 04:28:48;;;;;;;7.18;2.78;;;15.80;96.20;;;;;;5062785;28;20035;-65
2022/08/06 04:31:15;;;;;;;6.93;2.97;;;15.90;96.60;;;;;;5065461;28;20044;-65
2022/08/06 04:33:51;;;;;;;6.00;2.90;;;16.00;97.20;;;;;;5074604;28;20021;-65
2022/08/06 04:36:18;;;;;;;7.53;3.08;;;15.90;96.20;;;;;;5069033;28;20021;-67
2022/08/06 04:38:44;;;;;;;6.10;2.75;;;15.90;96.20;;;;;;5062617;28;20060;-67
2022/08/06 04:41:12;;;;;;;6.00;2.90;;;15.90;96.00;;;;;;5082648;28;20029;-67
2022/08/06 04:43:40;;;;;;;5.65;2.70;;;16.00;95.50;;;;;;5078041;28;20062;-67
2022/08/06 04:46:08;;;;;;;4.30;2.35;;;15.90;95.40;;;;;;5070529;28;20021;-67
2022/08/06 04:48:35;;;;;;;5.80;2.40;;;15.90;95.70;;;;;;5076139;28;20475;-67
2022/08/06 04:51:04;;;;;;;5.50;2.60;;;15.90;95.80;;;;;;5074256;28;20021;-67
2022/08/06 04:53:37;;;;;;;6.72;3.13;;;15.90;95.40;;;;;;5077803;28;20153;-66
2022/08/06 04:56:03;;;;;;;7.22;2.83;;;15.90;95.70;;;;;;5070155;28;20028;-66
2022/08/06 04:58:28;;;;;;;5.53;2.67;;;15.80;96.00;;;;;;5069360;28;20036;-67
2022/08/06 05:00:54;;;;;;;6.65;2.70;;;15.80;95.80;;;;;;5063069;28;20036;-67
2022/08/06 05:03:20;;;;;;;7.40;3.35;;;15.90;95.80;;;;;;5077900;28;20401;-66
2022/08/06 05:06:09;;;;;;;3.80;2.15;;;16.00;95.50;;;;;;5070402;28;20044;-67
2022/08/06 05:08:39;;;;;;;6.25;2.75;;;16.00;95.40;;;;;;5076569;28;20060;-66
2022/08/06 05:11:23;;;;;;;4.68;2.30;;;16.10;94.90;;;;;;5069077;28;20108;-68
2022/08/06 05:13:58;;;;;;;6.07;2.65;;;16.20;95.30;;;;;;5076152;28;20039;-67
2022/08/06 05:16:25;;;;;;;6.22;3.08;;;16.40;94.80;;;;;;5076919;28;20317;-66
2022/08/06 05:18:59;;;;;;;5.68;2.40;;;16.40;94.30;;;;;;5076507;28;20024;-67
2022/08/06 05:21:27;;;;;;;;;;;16.50;93.60;;;;;;5067527;28;20066;-67
2022/08/06 05:23:54;;;;;;;4.97;2.67;;;16.50;93.40;;;;;;5069543;28;19938;-67
2022/08/06 05:26:21;;;;;;;6.38;2.80;;;16.40;93.40;;;;;;5078632;28;20083;-66
2022/08/06 05:28:50;;;;;;;5.53;2.40;;;16.40;93.50;;;;;;5076454;28;20037;-66
2022/08/06 05:31:32;;;;;;;4.95;2.35;;;16.40;93.20;;;;;;5073161;28;20028;-67
2022/08/06 05:33:57;;;;;;;4.78;2.25;;;16.40;93.30;;;;;;5079506;28;20415;-67
2022/08/06 05:36:23;;;;;;;5.38;2.67;;;16.30;93.50;;;;;;5075162;28;20063;-67
2022/08/06 05:38:49;;;;;;;5.68;2.50;;;16.30;93.90;;;;;;5079029;28;20033;-67
2022/08/06 05:41:15;;;;;;;13.90;3.85;;;16.20;94.10;;;;;;5073477;28;20142;-67
2022/08/06 05:43:41;;;;;;;5.55;2.50;;;16.20;94.50;;;;;;5082652;28;20020;-67
2022/08/06 05:46:12;;;;;;;6.82;2.53;;;16.20;94.30;;;;;;5075468;28;20029;-67
2022/08/06 05:49:08;;;;;;;5.45;2.80;;;16.20;94.80;;;;;;5073391;28;20047;-67
2022/08/06 05:51:52;;;;;;;6.45;3.20;;;16.20;94.80;;;;;;5071272;28;20425;-68
2022/08/06 05:54:21;;;;;;;6.93;2.55;;;16.20;94.50;;;;;;5076339;28;20494;-68
2022/08/06 05:56:50;;;;;;;7.30;2.60;;;16.20;93.90;;;;;;5074059;28;20028;-68
2022/08/06 05:59:20;;;;;;;6.45;2.50;;;16.30;93.80;;;;;;5077823;28;20035;-68
2022/08/06 06:01:48;;;;;;;5.28;2.40;;;16.30;93.60;;;;;;5073553;28;20032;-68
2022/08/06 06:04:14;;;;;;;4.93;2.50;;;16.30;93.60;;;;;;5071459;28;20024;-67
2022/08/06 06:06:40;;;;;;;6.07;2.80;;;16.40;94.00;;;;;;5065290;28;21623;-69
2022/08/06 06:09:06;;;;;;;9.55;2.95;;;16.40;93.00;;;;;;5075085;28;20041;-67
2022/08/06 06:11:32;;;;;;;5.72;2.42;;;16.40;92.90;;;;;;5068287;28;20031;-68
2022/08/06 06:13:58;;;;;;;8.38;2.67;;;16.50;93.30;;;;;;5078935;28;20035;-66
2022/08/06 06:16:50;;;;;;;4.97;2.40;;;16.50;92.90;;;;;;5067424;28;20029;-67
2022/08/06 06:19:46;;;;;;;4.45;2.60;;;16.60;93.00;;;;;;5076805;28;20096;-67
2022/08/06 06:22:35;;;;;;;7.30;2.55;;;16.70;92.70;;;;;;5060114;28;20418;-68
2022/08/06 06:25:26;;;;;;;4.80;2.50;;;16.90;92.30;;;;;;5053871;28;20082;-67
2022/08/06 06:27:56;;;;;;;7.03;2.65;;;17.00;91.40;;;;;;5068653;28;20082;-67
2022/08/06 06:30:38;;;;;;;7.18;2.80;;;17.10;92.00;;;;;;5072746;28;20048;-68
2022/08/06 06:33:46;;;;;;;5.15;2.60;;;17.20;91.70;;;;;;5073596;28;20445;-68
2022/08/06 06:36:37;;;;;;;5.35;2.28;;;17.30;91.50;;;;;;5041804;28;20127;-68
2022/08/06 06:39:28;;;;;;;6.07;2.50;;;17.40;91.20;;;;;;5075481;28;20310;-68
2022/08/06 06:42:08;;;;;;;4.43;2.17;;;17.60;90.20;;;;;;5069742;28;20119;-68
2022/08/06 06:44:44;;;;;;;5.85;2.20;;;17.70;90.60;;;;;;5082498;28;20060;-68
2022/08/06 06:47:40;;;;;;;5.13;2.42;;;18.00;90.70;;;;;;5060893;28;20028;-67
2022/08/06 06:50:15;;;;;;;7.38;2.75;;;18.30;88.10;;;;;;5069525;28;20052;-67
2022/08/06 06:52:45;;;;;;;5.70;2.38;;;18.50;88.10;;;;;;5076268;28;20024;-68
2022/08/06 06:55:32;;;;;;;7.65;2.50;;;18.60;88.80;;;;;;5071751;28;20111;-67
2022/08/06 06:58:25;;;;;;;6.68;2.70;;;18.90;87.30;;;;;;5067243;28;20329;-68
2022/08/06 07:00:53;;;;;;;4.78;2.42;;;18.80;86.20;;;;;;5074019;28;20017;-68
2022/08/06 07:03:20;;;;;;;4.78;2.00;;;18.50;87.40;;;;;;5073766;28;20459;-68
2022/08/06 07:05:48;;;;;;;6.22;2.60;;;18.50;88.00;;;;;;5074269;28;20348;-68
2022/08/06 07:08:21;;;;;;;4.93;2.20;;;18.70;86.70;;;;;;5066405;28;20424;-67
2022/08/06 07:10:48;;;;;;;4.78;2.40;;;18.70;87.00;;;;;;5062458;28;20028;-67
2022/08/06 07:13:16;;;;;;;7.72;2.58;;;18.70;87.60;;;;;;5060986;28;20342;-67
2022/08/06 07:15:42;;;;;;;6.53;2.90;;;18.60;87.80;;;;;;5063627;28;20048;-66
2022/08/06 07:18:09;;;;;;;4.72;2.50;;;18.50;87.70;;;;;;5073364;28;20094;-66
2022/08/06 07:20:36;;;;;;;6.70;2.70;;;18.50;88.10;;;;;;5073545;28;20429;-66
2022/08/06 07:23:26;;;;;;;6.25;2.72;;;18.50;87.90;;;;;;5076236;28;20024;-66
2022/08/06 07:25:54;;;;;;;7.15;2.90;;;18.40;87.70;;;;;;5062652;28;20115;-66
2022/08/06 07:28:23;;;;;;;5.22;2.95;;;18.20;88.60;;;;;;5069694;28;20020;-66
2022/08/06 07:30:49;;;;;;;7.68;2.58;;;18.10;88.70;;;;;;5070356;28;20020;-68
2022/08/06 07:33:16;;;;;;;8.23;3.78;;;18.20;89.10;;;;;;5060092;28;20021;-67
2022/08/06 07:35:45;;;;;;;7.07;2.65;;;18.30;88.90;;;;;;5068716;28;20025;-68
2022/08/06 07:38:14;;;;;;;6.57;2.65;;;18.70;88.30;;;;;;5064741;28;20023;-68
2022/08/06 07:40:43;;;;;;;5.35;2.60;;;19.10;87.00;;;;;;5056264;28;20036;-68
2022/08/06 07:43:23;;;;;;;6.60;2.70;;;19.50;86.70;;;;;;5066115;28;20017;-68
2022/08/06 07:45:50;;;;;;;5.25;2.60;;;19.80;85.20;;;;;;5067231;28;20088;-68
2022/08/06 07:48:21;;;;;;;6.93;3.00;;;19.90;84.10;;;;;;5068397;28;20017;-68
2022/08/06 07:50:51;;;;;;;5.68;2.40;;;19.90;83.30;;;;;;5056211;28;20032;-67
2022/08/06 07:53:19;;;;;;;4.95;2.25;;;20.40;83.60;;;;;;5073759;28;20105;-68
2022/08/06 07:55:45;;;;;;;4.05;2.17;;;20.70;81.60;;;;;;5070354;28;20058;-68
2022/08/06 07:58:15;;;;;;;5.07;2.70;;;21.10;80.80;;;;;;5074032;28;20037;-68
2022/08/06 08:00:42;;;;;;;5.63;2.88;;;21.70;78.70;;;;;;5072027;28;20912;-68
2022/08/06 08:08:39;;;;;;;5.90;2.40;;;21.70;78.80;;;;;;5057066;28;20052;-67
2022/08/06 08:11:06;;;;;;;6.43;2.55;;;21.50;78.70;;;;;;5072218;28;20028;-68
2022/08/06 08:13:36;;;;;;;5.18;2.38;;;22.00;78.30;;;;;;5072241;28;20063;-68
2022/08/06 08:16:03;;;;;;;4.90;2.40;;;22.80;75.40;;;;;;5071117;28;20035;-66
2022/08/06 08:18:32;;;;;;;5.25;1.90;;;23.30;75.20;;;;;;5062350;28;20032;-67
2022/08/06 08:21:01;;;;;;;6.55;2.35;;;24.00;73.10;;;;;;5072675;28;20302;-67
2022/08/06 08:23:32;;;;;;;6.13;2.45;;;24.30;72.20;;;;;;5059120;28;20036;-67
2022/08/06 08:26:00;;;;;;;5.93;2.10;;;24.60;71.80;;;;;;5068367;28;21634;-66
2022/08/06 08:28:26;;;;;;;6.70;2.42;;;24.90;70.70;;;;;;5068410;28;20064;-67
2022/08/06 08:30:51;;;;;;;7.30;2.60;;;24.60;71.10;;;;;;5066386;28;20051;-67
2022/08/06 08:33:23;;;;;;;6.20;2.28;;;24.10;72.30;;;;;;5066753;28;20044;-67
2022/08/06 08:35:49;;;;;;;7.38;2.20;;;23.70;73.20;;;;;;5065403;28;20107;-66
2022/08/06 08:38:14;;;;;;;8.80;2.88;;;23.60;74.10;;;;;;5064171;28;20120;-67
2022/08/06 08:40:43;;;;;;;7.47;2.90;;;23.50;73.70;;;;;;5062986;28;20037;-68
2022/08/06 08:43:15;;;;;;;5.43;2.65;;;23.40;73.60;;;;;;5063597;28;20063;-67
2022/08/06 08:45:43;;;;;;;5.43;2.60;;;23.00;73.70;;;;;;5064934;28;20100;-67
2022/08/06 08:48:12;;;;;;;7.05;2.90;;;22.20;75.80;;;;;;5060165;28;20447;-68
2022/08/06 08:50:40;;;;;;;6.38;2.65;;;21.90;76.30;;;;;;5063219;28;20016;-68
2022/08/06 08:53:13;;;;;;;6.28;2.63;;;21.90;76.80;;;;;;5067238;28;20366;-67
2022/08/06 08:55:40;;;;;;;6.88;2.80;;;21.80;77.00;;;;;;5060121;28;20059;-68
2022/08/06 08:58:06;;;;;;;4.82;2.63;;;21.30;78.20;;;;;;5064041;28;20482;-68
2022/08/06 09:00:33;;;;;;;8.45;3.40;;;21.10;79.40;;;;;;5071314;28;20029;-67
2022/08/06 09:03:02;;;;;;;5.55;3.00;;;21.10;78.90;;;;;;5064263;28;20021;-67
2022/08/06 09:05:29;;;;;;;6.13;2.70;;;21.10;79.40;;;;;;5063900;28;20024;-67
2022/08/06 09:07:56;;;;;;;4.60;2.67;;;21.10;78.40;;;;;;5064754;28;20066;-67
2022/08/06 09:10:24;;;;;;;6.75;2.95;;;20.90;79.90;;;;;;5061006;28;20087;-67
2022/08/06 09:12:50;;;;;;;8.90;3.00;;;21.10;79.20;;;;;;5071232;28;20024;-67
2022/08/06 09:15:17;;;;;;;5.00;2.80;;;20.90;79.00;;;;;;5077165;28;20028;-67
2022/08/06 09:17:43;;;;;;;6.32;2.90;;;20.90;78.90;;;;;;5069703;28;20082;-67
2022/08/06 09:20:09;;;;;;;8.38;2.35;;;20.90;79.00;;;;;;5074714;28;20033;-67
2022/08/06 09:22:35;;;;;;;5.55;2.45;;;21.10;80.80;;;;;;5071027;28;20032;-67
2022/08/06 09:25:03;;;;;;;5.50;2.58;;;21.60;78.30;;;;;;5075801;28;20020;-67
2022/08/06 09:27:34;;;;;;;5.38;2.70;;;21.90;76.70;;;;;;5074562;28;20298;-68
2022/08/06 09:30:05;;;;;;;4.53;2.50;;;21.50;77.70;;;;;;5078558;28;20085;-67
2022/08/06 09:32:45;;;;;;;6.57;2.60;;;21.70;78.10;;;;;;5070388;28;20057;-68
2022/08/06 09:35:21;;;;;;;5.38;2.85;;;22.40;76.00;;;;;;5072620;28;20028;-68
2022/08/06 09:37:49;;;;;;;6.07;2.70;;;22.80;74.00;;;;;;5066714;28;20448;-68
2022/08/06 09:40:19;;;;;;;5.70;2.80;;;23.30;74.60;;;;;;5071425;28;20453;-67
2022/08/06 09:42:48;;;;;;;6.25;2.55;;;23.80;71.90;;;;;;5069063;28;20372;-68
2022/08/06 09:45:15;;;;;;;7.18;2.80;;;23.90;71.00;;;;;;5073627;28;20100;-67
2022/08/06 09:47:41;;;;;;;9.45;2.60;;;23.90;72.00;;;;;;5072025;28;20463;-67
2022/08/06 09:50:08;;;;;;;6.68;2.67;;;23.80;72.00;;;;;;5074102;28;20029;-68
2022/08/06 09:52:39;;;;;;;8.40;2.45;;;23.60;72.00;;;;;;5067063;28;20041;-67
2022/08/06 09:55:05;;;;;;;5.95;2.55;;;23.30;73.40;;;;;;5058753;28;20078;-67
2022/08/06 09:57:45;;;;;;;7.55;2.70;;;22.90;74.20;;;;;;5062549;28;20040;-67
2022/08/06 10:00:23;;;;;;;4.00;2.35;;;22.40;74.30;;;;;;5078426;28;20049;-67
2022/08/06 10:02:54;;;;;;;6.13;2.60;;;22.20;75.20;;;;;;5071344;28;20024;-67
2022/08/06 10:05:22;;;;;;;5.38;2.90;;;21.80;76.40;;;;;;5069148;28;20028;-67
2022/08/06 10:08:05;;;;;;;5.97;3.10;;;21.80;76.90;;;;;;5062701;28;20056;-67
2022/08/06 10:10:48;;;;;;;9.23;3.28;;;21.80;75.40;;;;;;5057487;28;20073;-67
2022/08/06 10:13:18;;;;;;;7.75;2.90;;;22.00;76.50;;;;;;5065810;28;20434;-65
2022/08/06 10:15:45;;;;;;;6.18;3.10;;;22.40;76.00;;;;;;5060450;28;20383;-66
2022/08/06 10:18:42;;;;;;;7.15;3.55;;;22.50;73.30;;;;;;5059787;28;20107;-66
2022/08/06 10:21:17;;;;;;;5.38;2.58;;;22.20;74.10;;;;;;5061101;28;20037;-66
2022/08/06 10:23:48;;;;;;;6.22;2.72;;;22.00;75.60;;;;;;5059749;28;20481;-67
2022/08/06 10:26:29;;;;;;;6.10;2.55;;;21.80;75.70;;;;;;5062484;28;20025;-68
2022/08/06 10:28:59;;;;;;;7.05;3.22;;;21.90;76.40;;;;;;5068127;28;20032;-68
2022/08/06 10:31:24;;;;;;;6.50;2.85;;;22.00;75.70;;;;;;5072039;28;20404;-68
2022/08/06 10:33:56;;;;;;;6.28;2.78;;;22.00;75.70;;;;;;5077453;28;20410;-67
2022/08/06 10:36:43;;;;;;;6.30;2.63;;;22.10;76.30;;;;;;5062259;28;20025;-67
2022/08/06 10:39:09;;;;;;;8.18;2.80;;;22.50;75.20;;;;;;5080303;28;20021;-67
2022/08/06 10:41:38;;;;;;;8.60;2.60;;;23.20;73.80;;;;;;5060237;28;20024;-67
2022/08/06 10:44:05;;;;;;;6.38;2.70;;;24.40;70.50;;;;;;5069785;28;20037;-67
2022/08/06 10:46:32;;;;;;;5.53;2.47;;;24.80;67.70;;;;;;5065779;28;20104;-67
2022/08/06 10:48:59;;;;;;;7.05;3.05;;;24.10;69.60;;;;;;5076345;28;20020;-68
2022/08/06 10:51:26;;;;;;;6.80;3.15;;;23.40;71.40;;;;;;5069774;28;20401;-67
2022/08/06 10:53:53;;;;;;;6.88;3.60;;;23.20;70.90;;;;;;5075029;28;20020;-67
2022/08/06 10:56:19;;;;;;;5.88;2.90;;;22.90;71.30;;;;;;5072602;28;20350;-67
2022/08/06 10:58:45;;;;;;;6.03;2.50;;;22.80;72.60;;;;;;5070502;28;20060;-68
2022/08/06 11:01:34;;;;;;;7.88;2.67;;;23.20;72.60;;;;;;5076566;28;20032;-67
2022/08/06 11:04:37;;;;;;;7.50;2.97;;;23.60;71.50;;;;;;5030188;28;20041;-67
2022/08/06 11:07:39;;;;;;;8.00;2.55;;;24.00;70.40;;;;;;5070092;28;20336;-67
2022/08/06 11:10:23;;;;;;;7.88;3.13;;;23.90;69.90;;;;;;5072612;28;20025;-67
2022/08/06 11:12:52;;;;;;;;;;;24.20;70.30;;;;;;5063364;28;20053;-68
2022/08/06 11:15:19;;;;;;;6.13;2.40;;;24.70;68.40;;;;;;5063732;28;19958;-68
2022/08/06 11:17:48;;;;;;;5.80;2.55;;;25.70;66.10;;;;;;5074832;28;20424;-66
2022/08/06 11:20:31;;;;;;;6.03;2.85;;;26.10;63.60;;;;;;5058421;28;20028;-67
2022/08/06 11:23:00;;;;;;;4.95;2.42;;;25.00;66.50;;;;;;5060791;28;20318;-67
2022/08/06 11:25:42;;;;;;;7.03;2.83;;;24.20;66.80;;;;;;5066292;28;20028;-68
2022/08/06 11:28:18;;;;;;;8.10;2.45;;;23.80;68.10;;;;;;5062991;28;20100;-67
2022/08/06 11:30:53;;;;;;;5.53;2.08;;;23.90;67.70;;;;;;5064603;28;20034;-67
2022/08/06 11:33:20;;;;;;;5.30;2.15;;;23.90;68.60;;;;;;5057544;28;20041;-68
2022/08/06 11:35:48;;;;;;;5.85;2.20;;;24.40;67.30;;;;;;5062855;28;20037;-67
2022/08/06 11:38:35;;;;;;;6.38;2.60;;;24.20;67.50;;;;;;5060381;28;20037;-67
2022/08/06 11:41:06;;;;;;;5.65;2.40;;;23.40;68.50;;;;;;5071690;28;20028;-68
2022/08/06 11:43:51;;;;;;;6.25;2.53;;;23.10;69.30;;;;;;5068299;28;20025;-67
2022/08/06 11:46:25;;;;;;;;;;;23.40;69.60;;;;;;5059659;28;20059;-66
2022/08/06 11:48:59;;;;;;;5.75;2.30;;;23.40;69.40;;;;;;5073389;28;19915;-67
2022/08/06 11:51:49;;;;;;;5.05;2.65;;;23.60;68.70;;;;;;5062898;28;20074;-66
2022/08/06 11:54:19;;;;;;;4.57;2.08;;;23.80;69.40;;;;;;5063966;28;20356;-68
2022/08/06 11:57:06;;;;;;;4.93;2.40;;;24.20;69.60;;;;;;5058623;28;20032;-68
2022/08/06 11:59:34;;;;;;;5.13;2.08;;;25.00;65.40;;;;;;5069011;28;20033;-68
2022/08/06 12:02:06;;;;;;;3.60;1.92;;;25.40;64.40;;;;;;5071243;28;20115;-68
2022/08/06 12:04:35;;;;;;;5.60;1.83;;;25.10;65.20;;;;;;5059712;28;20418;-67
2022/08/06 12:07:20;;;;;;;4.60;1.85;;;24.90;65.80;;;;;;5056517;28;20361;-67
2022/08/06 12:09:59;;;;;;;5.43;2.10;;;24.60;65.70;;;;;;5056323;28;20029;-66
2022/08/06 12:12:28;;;;;;;6.30;2.20;;;24.60;64.70;;;;;;5061778;28;20494;-67
2022/08/06 12:14:56;;;;;;;5.82;2.20;;;24.80;64.60;;;;;;5068379;28;20028;-67
2022/08/06 12:17:23;;;;;;;4.70;2.00;;;25.10;64.20;;;;;;5060919;28;20094;-65
2022/08/06 12:19:51;;;;;;;5.07;1.95;;;25.20;64.20;;;;;;5068551;28;20029;-66
2022/08/06 12:22:21;;;;;;;5.75;2.20;;;25.10;63.20;;;;;;5063470;28;20292;-67
2022/08/06 12:24:50;;;;;;;3.55;1.80;;;25.00;65.20;;;;;;5067762;28;20060;-67
2022/08/06 12:27:17;;;;;;;4.90;2.00;;;25.80;62.70;;;;;;5056993;28;20021;-67
2022/08/06 12:29:46;;;;;;;4.43;1.90;;;26.00;62.10;;;;;;5074873;28;20047;-69
2022/08/06 12:32:28;;;;;;;4.20;1.92;;;26.50;60.60;;;;;;5064528;28;20037;-67
2022/08/06 12:34:59;;;;;;;4.80;1.85;;;27.10;59.80;;;;;;5070730;28;20024;-67
2022/08/06 12:37:42;;;;;;;4.53;1.70;;;27.50;58.40;;;;;;5065510;28;20032;-67
2022/08/06 12:43:09;;;;;;;6.25;1.70;;;28.20;57.80;;;;;;5055719;28;20323;-67
2022/08/06 12:45:37;;;;;;;5.35;1.90;;;27.50;59.20;;;;;;5060594;28;20005;-67
2022/08/06 12:48:04;;;;;;;4.13;1.70;;;27.10;57.60;;;;;;5062211;28;20013;-67
2022/08/06 12:50:31;;;;;;;5.00;1.83;;;26.80;58.80;;;;;;5075846;28;20031;-67
2022/08/06 12:53:03;;;;;;;3.63;1.63;;;26.80;59.50;;;;;;5062920;28;20451;-65
2022/08/06 12:55:31;;;;;;;4.38;1.73;;;26.90;58.60;;;;;;5076354;28;20032;-67
2022/08/06 12:57:59;;;;;;;5.35;1.50;;;27.00;58.60;;;;;;5074551;28;20098;-67
2022/08/06 13:00:25;;;;;;;5.40;1.73;;;26.90;59.60;;;;;;5077139;28;20024;-67
2022/08/06 13:02:51;;;;;;;4.13;1.70;;;27.00;59.10;;;;;;5068592;28;20463;-67
2022/08/06 13:05:27;;;;;;;4.05;1.80;;;27.00;60.80;;;;;;5058920;28;20418;-67
2022/08/06 13:07:54;;;;;;;5.20;1.50;;;27.20;60.10;;;;;;5064908;28;20056;-66
2022/08/06 13:10:20;;;;;;;3.90;1.52;;;27.80;58.00;;;;;;5068734;28;20117;-66
2022/08/06 13:12:54;;;;;;;4.65;1.50;;;28.00;57.90;;;;;;5072728;28;20371;-65
2022/08/06 13:15:19;;;;;;;3.00;1.40;;;28.50;58.30;;;;;;5068246;28;20050;-66
2022/08/06 13:18:09;;;;;;;4.18;1.60;;;28.70;57.70;;;;;;5076145;28;20036;-66
2022/08/06 13:20:36;;;;;;;3.70;1.65;;;28.90;56.10;;;;;;5070056;28;20025;-67